Terminal Aerodrome Forecast
Issued by NWS Blacksburg, VA

Current Version | Previous Version | Graphics & Text | Print | Product List | Glossary On
Versions: 1 2 3 4 5 6 7 8 9 10 11 12 13 14 15 16 17 18 19 20 21 22 23 24 25 26 27 28 29 30 31 32 33 34 35
000
FTUS41 KRNK 300849 AAA
TAFBLF
TAF AMD
KBLF 300849Z 3009/3106 27015G25KT P6SM -RA OVC020
      TEMPO 3009/3013 5SM -SHRA BR SCT015 OVC025
     FM301300 28012G22KT 5SM -SHRA BR SCT009 OVC015
     FM301600 29013G23KT P6SM OVC015
     FM301800 29011G22KT P6SM SCT020 SCT250
     FM302300 29007KT P6SM SCT250=

USA.gov is the U.S. government's official web portal to all federal, state and local government web resources and services.